createdAt,value
2018-09-01T00:01:03.383Z,0
2018-09-01T00:02:12.828Z,0
2018-09-01T00:03:22.562Z,0
2018-09-01T00:04:32.002Z,0
2018-09-01T00:05:41.441Z,0
2018-09-01T00:06:51.136Z,0
2018-09-01T00:08:00.816Z,0
2018-09-01T00:09:09.723Z,0
2018-09-01T00:10:18.902Z,0
2018-09-01T00:11:28.600Z,0
2018-09-01T00:12:38.291Z,0
2018-09-01T00:13:47.761Z,0
2018-09-01T00:14:56.949Z,0
2018-09-01T00:16:06.645Z,0
2018-09-01T00:17:16.089Z,0
2018-09-01T00:18:25.801Z,0
2018-09-01T00:19:35.735Z,0
2018-09-01T00:20:45.433Z,0
2018-09-01T00:21:54.613Z,0
2018-09-01T00:23:03.516Z,0
2018-09-01T00:24:12.694Z,0
2018-09-01T00:25:22.122Z,0
2018-09-01T00:26:31.534Z,0
2018-09-01T00:27:40.957Z,0
2018-09-01T00:28:50.138Z,0
2018-09-01T00:29:59.836Z,0
2018-09-01T00:31:09.030Z,0
2018-09-01T00:32:18.505Z,0
2018-09-01T00:33:28.441Z,0
2018-09-01T00:34:37.894Z,0
2018-09-01T00:35:47.079Z,0
2018-09-01T00:36:56.277Z,0
2018-09-01T00:38:05.987Z,0
2018-09-01T00:39:15.159Z,0
2018-09-01T00:40:24.579Z,0
2018-09-01T00:41:34.272Z,0
2018-09-01T00:42:44.216Z,0
2018-09-01T00:43:53.394Z,0
2018-09-01T00:45:03.088Z,0
2018-09-01T00:46:12.512Z,0
2018-09-01T00:47:21.700Z,0
2018-09-01T00:48:31.439Z,0
2018-09-01T00:49:41.480Z,0
2018-09-01T00:50:50.924Z,0
2018-09-01T00:52:00.355Z,0
2018-09-01T00:53:10.046Z,0
2018-09-01T00:54:18.968Z,0
2018-09-01T00:55:27.907Z,0
2018-09-01T00:56:37.310Z,0
2018-09-01T00:57:47.063Z,0
2018-09-01T00:58:57.018Z,0
2018-09-01T01:00:06.257Z,0
2018-09-01T01:01:15.690Z,0
2018-09-01T01:02:25.157Z,0
2018-09-01T01:03:35.105Z,0
2018-09-01T01:04:44.303Z,0
2018-09-01T01:05:53.487Z,0
2018-09-01T01:07:03.162Z,0
2018-09-01T01:08:12.870Z,0
2018-09-01T01:09:22.324Z,0
2018-09-01T01:10:31.264Z,0
2018-09-01T01:11:40.697Z,0
2018-09-01T01:12:50.375Z,0
2018-09-01T01:14:00.180Z,0
2018-09-01T01:15:09.598Z,0
2018-09-01T01:16:19.037Z,0
2018-09-01T01:17:27.933Z,0
2018-09-01T01:18:37.099Z,0
2018-09-01T01:19:46.533Z,0
2018-09-01T01:20:55.959Z,0
2018-09-01T01:22:05.147Z,0
2018-09-01T01:23:14.575Z,0
2018-09-01T01:24:24.271Z,0
2018-09-01T01:25:33.453Z,0
2018-09-01T01:26:42.388Z,0
2018-09-01T01:27:51.831Z,0
2018-09-01T01:29:01.513Z,0
2018-09-01T01:30:11.481Z,0
2018-09-01T01:31:20.635Z,0
2018-09-01T01:32:30.588Z,0
2018-09-01T01:33:40.016Z,0
2018-09-01T01:34:49.715Z,0
2018-09-01T01:35:58.628Z,0
2018-09-01T01:37:08.367Z,0
2018-09-01T01:38:17.531Z,0
2018-09-01T01:39:26.949Z,0
2018-09-01T01:40:35.897Z,0
2018-09-01T01:41:45.341Z,0
2018-09-01T01:42:54.771Z,0
2018-09-01T01:44:04.476Z,0
2018-09-01T01:45:13.663Z,0
2018-09-01T01:46:22.843Z,0
2018-09-01T01:47:32.085Z,0
2018-09-01T01:48:41.251Z,0
2018-09-01T01:49:50.375Z,0
2018-09-01T01:50:59.304Z,0
2018-09-01T01:52:08.510Z,0
2018-09-01T01:53:17.951Z,0
2018-09-01T01:54:27.903Z,0
2018-09-01T01:55:37.591Z,0
2018-09-01T01:56:47.019Z,0
2018-09-01T01:57:56.196Z,0
2018-09-01T01:59:05.641Z,0
2018-09-01T02:00:15.320Z,0
2018-09-01T02:01:24.504Z,0
2018-09-01T02:02:33.676Z,0
2018-09-01T02:03:43.623Z,0
2018-09-01T02:04:53.316Z,0
2018-09-01T02:06:02.749Z,0
2018-09-01T02:07:11.917Z,0
2018-09-01T02:08:21.331Z,0
2018-09-01T02:09:30.247Z,0
2018-09-01T02:10:39.421Z,0
2018-09-01T02:11:48.334Z,0
2018-09-01T02:12:57.510Z,0
2018-09-01T02:14:06.946Z,0
2018-09-01T02:15:16.396Z,0
2018-09-01T02:16:25.352Z,0
2018-09-01T02:17:35.334Z,0
2018-09-01T02:18:45.023Z,0
2018-09-01T02:19:54.716Z,0
2018-09-01T02:21:04.145Z,0
2018-09-01T02:22:13.321Z,0
2018-09-01T02:23:22.754Z,0
2018-09-01T02:24:32.447Z,0
2018-09-01T02:25:41.641Z,0
2018-09-01T02:26:51.337Z,0
2018-09-01T02:28:01.037Z,0
2018-09-01T02:29:10.223Z,0
2018-09-01T02:30:19.668Z,0
2018-09-01T02:31:28.843Z,0
2018-09-01T02:32:38.278Z,0
2018-09-01T02:33:48.236Z,0
2018-09-01T02:34:57.415Z,0
2018-09-01T02:36:06.845Z,0
2018-09-01T02:37:16.561Z,0
2018-09-01T02:38:25.475Z,0
2018-09-01T02:39:35.155Z,0
2018-09-01T02:40:45.113Z,0
2018-09-01T02:41:54.560Z,0
2018-09-01T02:43:04.260Z,0
2018-09-01T02:44:13.697Z,0
2018-09-01T02:45:23.140Z,0
2018-09-01T02:46:32.819Z,0
2018-09-01T02:47:41.984Z,0
2018-09-01T02:48:51.676Z,0
2018-09-01T02:50:00.867Z,0
2018-09-01T02:51:10.048Z,0
2018-09-01T02:52:19.742Z,0
2018-09-01T02:53:29.180Z,0
2018-09-01T02:54:39.145Z,0
2018-09-01T02:55:48.835Z,0
2018-09-01T02:56:58.009Z,0
2018-09-01T02:58:07.468Z,0
2018-09-01T02:59:16.898Z,0
2018-09-01T03:00:26.109Z,0
2018-09-01T03:01:35.298Z,0
2018-09-01T03:02:45.258Z,0
2018-09-01T03:03:55.205Z,0
2018-09-01T03:05:04.632Z,0
2018-09-01T03:06:14.574Z,0
2018-09-01T03:07:23.738Z,0
2018-09-01T03:08:33.168Z,0
2018-09-01T03:09:42.349Z,0
2018-09-01T03:10:51.540Z,0
2018-09-01T03:12:00.477Z,0
2018-09-01T03:13:09.648Z,0
2018-09-01T03:14:19.663Z,0
2018-09-01T03:15:29.096Z,0
2018-09-01T03:16:38.805Z,0
2018-09-01T03:17:48.222Z,0
2018-09-01T03:18:57.391Z,0
2018-09-01T03:20:06.848Z,0
2018-09-01T03:21:15.764Z,0
2018-09-01T03:22:25.224Z,0
2018-09-01T03:23:34.917Z,0
2018-09-01T03:24:44.345Z,0
2018-09-01T03:25:54.023Z,0
2018-09-01T03:27:03.959Z,0
2018-09-01T03:28:13.638Z,0
2018-09-01T03:29:22.814Z,0
2018-09-01T03:30:31.993Z,0
2018-09-01T03:31:41.169Z,0
2018-09-01T03:32:50.604Z,0
2018-09-01T03:34:00.288Z,0
2018-09-01T03:35:10.250Z,0
2018-09-01T03:36:19.686Z,0
2018-09-01T03:37:29.668Z,0
2018-09-01T03:38:39.345Z,0
2018-09-01T03:39:49.024Z,0
2018-09-01T03:40:58.448Z,0
2018-09-01T03:42:08.181Z,0
2018-09-01T03:43:17.619Z,0
2018-09-01T03:44:26.892Z,0
2018-09-01T03:45:36.322Z,0
2018-09-01T03:46:45.847Z,0
2018-09-01T03:47:55.786Z,0
2018-09-01T03:49:04.955Z,0
2018-09-01T03:50:14.648Z,0
2018-09-01T03:51:23.810Z,0
2018-09-01T03:52:33.495Z,0
2018-09-01T03:53:42.683Z,0
2018-09-01T03:54:52.417Z,0
2018-09-01T03:56:01.843Z,0
2018-09-01T03:57:11.014Z,0
2018-09-01T03:58:20.434Z,0
2018-09-01T03:59:29.894Z,0
2018-09-01T04:00:39.069Z,0
2018-09-01T04:01:48.758Z,0
2018-09-01T04:02:58.208Z,0
2018-09-01T04:04:07.140Z,0
2018-09-01T04:05:16.606Z,0
2018-09-01T04:06:25.834Z,0
2018-09-01T04:07:35.283Z,0
2018-09-01T04:08:44.443Z,0
2018-09-01T04:09:53.874Z,0
2018-09-01T04:11:03.555Z,0
2018-09-01T04:12:12.995Z,0
2018-09-01T04:13:22.419Z,0
2018-09-01T04:14:31.844Z,0
2018-09-01T04:15:41.536Z,0
2018-09-01T04:16:51.218Z,0
2018-09-01T04:18:00.892Z,0
2018-09-01T04:19:10.318Z,0
2018-09-01T04:20:19.510Z,0
2018-09-01T04:21:28.507Z,0
2018-09-01T04:22:37.678Z,0
2018-09-01T04:23:46.861Z,0
2018-09-01T04:24:56.569Z,0
2018-09-01T04:26:06.014Z,0
2018-09-01T04:27:15.867Z,0
2018-09-01T04:28:25.557Z,0
2018-09-01T04:29:35.241Z,0
2018-09-01T04:30:44.662Z,0
2018-09-01T04:31:54.185Z,0
2018-09-01T04:33:03.384Z,0
2018-09-01T04:34:12.570Z,0
2018-09-01T04:35:22.266Z,0
2018-09-01T04:36:31.963Z,0
2018-09-01T04:37:41.638Z,0
2018-09-01T04:38:51.062Z,0
2018-09-01T04:40:00.811Z,0
2018-09-01T04:41:09.727Z,0
2018-09-01T04:42:18.672Z,0
2018-09-01T04:43:28.108Z,0
2018-09-01T04:44:37.798Z,0
2018-09-01T04:45:47.019Z,0
2018-09-01T04:46:56.563Z,0
2018-09-01T04:48:06.595Z,0
2018-09-01T04:49:16.027Z,0
2018-09-01T04:50:25.722Z,0
2018-09-01T04:51:35.166Z,0
2018-09-01T04:52:44.400Z,0
2018-09-01T04:53:53.823Z,0
2018-09-01T04:55:03.290Z,0
2018-09-01T04:56:12.470Z,0
2018-09-01T04:57:21.954Z,0
2018-09-01T04:58:31.420Z,0
2018-09-01T04:59:41.120Z,0
2018-09-01T05:00:50.949Z,0
2018-09-01T05:02:00.400Z,0
2018-09-01T05:03:09.608Z,0
2018-09-01T05:04:19.304Z,0
2018-09-01T05:05:29.005Z,0
2018-09-01T05:06:38.702Z,0
2018-09-01T05:07:47.655Z,0
2018-09-01T05:08:57.364Z,0
2018-09-01T05:10:06.813Z,0
2018-09-01T05:11:16.499Z,0
2018-09-01T05:12:25.672Z,0
2018-09-01T05:13:34.869Z,0
2018-09-01T05:14:43.773Z,0
2018-09-01T05:15:52.690Z,0
2018-09-01T05:17:02.130Z,0
2018-09-01T05:18:11.607Z,0
2018-09-01T05:19:21.036Z,0
2018-09-01T05:20:30.726Z,0
2018-09-01T05:21:40.160Z,0
2018-09-01T05:22:50.129Z,0
2018-09-01T05:24:00.355Z,0
2018-09-01T05:25:09.347Z,0
2018-09-01T05:26:18.779Z,0
2018-09-01T05:27:28.717Z,0
2018-09-01T05:28:38.459Z,0
2018-09-01T05:29:47.618Z,0
2018-09-01T05:30:57.072Z,0
2018-09-01T05:32:06.551Z,0
2018-09-01T05:33:16.027Z,0
2018-09-01T05:34:25.487Z,0
2018-09-01T05:35:34.939Z,0
2018-09-01T05:36:45.415Z,4
2018-09-01T05:37:55.110Z,0
2018-09-01T05:39:04.021Z,4
2018-09-01T05:40:13.448Z,4
2018-09-01T05:41:23.194Z,4
2018-09-01T05:42:32.359Z,4
2018-09-01T05:43:41.998Z,4
2018-09-01T05:44:52.084Z,0
2018-09-01T05:46:01.522Z,4
2018-09-01T05:47:10.961Z,0
2018-09-01T05:48:20.400Z,4
2018-09-01T05:49:30.138Z,4
2018-09-01T05:50:39.678Z,4
2018-09-01T05:51:49.464Z,4
2018-09-01T05:52:58.634Z,4
2018-09-01T05:54:08.337Z,4
2018-09-01T05:55:17.513Z,4
2018-09-01T05:56:26.970Z,4
2018-09-01T05:57:36.392Z,4
2018-09-01T05:58:46.335Z,4
2018-09-01T05:59:56.281Z,0
2018-09-01T06:01:06.234Z,0
2018-09-01T06:02:15.686Z,0
2018-09-01T06:03:24.915Z,0
2018-09-01T06:04:34.352Z,0
2018-09-01T06:05:44.290Z,0
2018-09-01T06:06:53.271Z,0
2018-09-01T06:08:02.442Z,0
2018-09-01T06:09:11.924Z,0
2018-09-01T06:10:20.837Z,0
2018-09-01T06:11:29.760Z,0
2018-09-01T06:12:39.612Z,0
2018-09-01T06:13:49.053Z,4
2018-09-01T06:14:58.756Z,4
2018-09-01T06:16:07.931Z,4
2018-09-01T06:17:16.587Z,4
2018-09-01T06:18:26.016Z,4
2018-09-01T06:19:35.765Z,4
2018-09-01T06:20:44.958Z,4
2018-09-01T06:21:54.645Z,4
2018-09-01T06:23:04.334Z,4
2018-09-01T06:24:13.505Z,4
2018-09-01T06:25:23.497Z,4
2018-09-01T06:26:32.701Z,4
2018-09-01T06:27:42.132Z,4
2018-09-01T06:28:51.310Z,4
2018-09-01T06:30:00.503Z,4
2018-09-01T06:31:10.254Z,4
2018-09-01T06:32:19.680Z,4
2018-09-01T06:33:28.864Z,4
2018-09-01T06:34:38.336Z,4
2018-09-01T06:35:48.109Z,4
2018-09-01T06:36:57.537Z,4
2018-09-01T06:38:06.987Z,4
2018-09-01T06:39:16.673Z,4
2018-09-01T06:40:26.406Z,4
2018-09-01T06:41:36.044Z,4
2018-09-01T06:42:45.228Z,4
2018-09-01T06:43:54.657Z,8
2018-09-01T06:45:04.104Z,8
2018-09-01T06:46:13.294Z,8
2018-09-01T06:47:22.481Z,8
2018-09-01T06:48:31.407Z,8
2018-09-01T06:49:41.111Z,8
2018-09-01T06:50:50.539Z,8
2018-09-01T06:51:59.710Z,8
2018-09-01T06:53:08.955Z,4
2018-09-01T06:54:18.649Z,4
2018-09-01T06:55:27.313Z,4
2018-09-01T06:56:37.272Z,4
2018-09-01T06:57:46.786Z,4
2018-09-01T06:58:56.459Z,4
2018-09-01T07:00:06.189Z,4
2018-09-01T07:01:15.356Z,4
2018-09-01T07:02:25.317Z,4
2018-09-01T07:03:35.053Z,8
2018-09-01T07:04:43.992Z,8
2018-09-01T07:05:53.434Z,8
2018-09-01T07:07:02.607Z,8
2018-09-01T07:08:11.796Z,8
2018-09-01T07:09:20.990Z,8
2018-09-01T07:10:30.161Z,4
2018-09-01T07:11:38.832Z,4
2018-09-01T07:12:48.006Z,8
2018-09-01T07:13:57.480Z,8
2018-09-01T07:15:06.439Z,8
2018-09-01T07:16:16.131Z,8
2018-09-01T07:17:25.343Z,8
2018-09-01T07:18:34.514Z,8
2018-09-01T07:19:43.955Z,8
2018-09-01T07:20:53.372Z,8
2018-09-01T07:22:02.809Z,8
2018-09-01T07:23:12.227Z,8
2018-09-01T07:24:21.405Z,8
2018-09-01T07:25:30.597Z,12
2018-09-01T07:26:40.098Z,12
2018-09-01T07:27:49.542Z,8
2018-09-01T07:28:58.985Z,8
2018-09-01T07:30:09.074Z,8
2018-09-01T07:31:21.208Z,12
2018-09-01T07:32:31.908Z,12
2018-09-01T07:33:41.346Z,12
2018-09-01T07:34:51.305Z,12
2018-09-01T07:36:00.799Z,12
2018-09-01T07:37:10.488Z,12
2018-09-01T07:38:19.939Z,12
2018-09-01T07:39:29.233Z,12
2018-09-01T07:40:38.430Z,12
2018-09-01T07:41:48.418Z,12
2018-09-01T07:42:57.844Z,12
2018-09-01T07:44:07.026Z,8
2018-09-01T07:45:16.450Z,12
2018-09-01T07:46:25.635Z,12
2018-09-01T07:47:34.795Z,12
2018-09-01T07:48:44.272Z,12
2018-09-01T07:49:53.990Z,12
2018-09-01T07:51:03.232Z,16
2018-09-01T07:52:12.666Z,16
2018-09-01T07:53:21.926Z,12
2018-09-01T07:54:31.464Z,16
2018-09-01T07:55:41.281Z,16
2018-09-01T07:56:51.248Z,12
2018-09-01T07:58:00.933Z,12
2018-09-01T07:59:09.840Z,12
2018-09-01T08:00:19.017Z,12
2018-09-01T08:01:28.526Z,12
2018-09-01T08:02:37.715Z,12
2018-09-01T08:03:47.428Z,12
2018-09-01T08:04:57.112Z,12
2018-09-01T08:06:06.831Z,12
2018-09-01T08:07:16.269Z,12
2018-09-01T08:08:24.946Z,12
2018-09-01T08:09:34.122Z,12
2018-09-01T08:10:43.618Z,12
2018-09-01T08:11:53.322Z,12
2018-09-01T08:13:02.503Z,16
2018-09-01T08:14:13.236Z,12
2018-09-01T08:15:23.224Z,12
2018-09-01T08:16:32.730Z,12
2018-09-01T08:17:42.449Z,12
2018-09-01T08:18:51.630Z,12
2018-09-01T08:20:01.377Z,12
2018-09-01T08:21:11.080Z,16
2018-09-01T08:22:20.786Z,16
2018-09-01T08:23:30.216Z,16
2018-09-01T08:24:39.666Z,16
2018-09-01T08:25:48.843Z,16
2018-09-01T08:26:58.541Z,12
2018-09-01T08:28:07.982Z,12
2018-09-01T08:29:17.943Z,12
2018-09-01T08:30:27.373Z,16
2018-09-01T08:31:37.093Z,16
2018-09-01T08:32:46.547Z,16
2018-09-01T08:33:56.390Z,16
2018-09-01T08:35:05.901Z,16
2018-09-01T08:36:15.373Z,16
2018-09-01T08:37:24.285Z,16
2018-09-01T08:38:33.713Z,16
2018-09-01T08:39:43.452Z,16
2018-09-01T08:40:53.393Z,16
2018-09-01T08:42:02.307Z,20
2018-09-01T08:43:11.484Z,16
2018-09-01T08:44:21.189Z,16
2018-09-01T08:45:30.808Z,16
2018-09-01T08:46:40.005Z,16
2018-09-01T08:47:49.176Z,16
2018-09-01T08:48:58.082Z,20
2018-09-01T08:50:07.553Z,20
2018-09-01T08:51:17.000Z,16
2018-09-01T08:52:26.200Z,16
2018-09-01T08:53:36.143Z,20
2018-09-01T08:54:45.301Z,20
2018-09-01T08:55:54.977Z,20
2018-09-01T08:57:04.429Z,20
2018-09-01T08:58:13.604Z,20
2018-09-01T08:59:23.542Z,20
2018-09-01T09:00:32.975Z,16
2018-09-01T09:01:42.403Z,20
2018-09-01T09:02:51.849Z,20
2018-09-01T09:04:01.314Z,20
2018-09-01T09:05:10.479Z,24
2018-09-01T09:06:19.911Z,20
2018-09-01T09:07:29.329Z,20
2018-09-01T09:08:38.251Z,24
2018-09-01T09:09:47.480Z,24
2018-09-01T09:10:57.182Z,24
2018-09-01T09:12:06.355Z,24
2018-09-01T09:13:16.325Z,24
2018-09-01T09:14:25.578Z,20
2018-09-01T09:15:34.747Z,20
2018-09-01T09:16:44.451Z,24
2018-09-01T09:17:53.915Z,24
2018-09-01T09:19:03.100Z,24
2018-09-01T09:20:12.848Z,24
2018-09-01T09:21:22.549Z,24
2018-09-01T09:22:31.976Z,24
2018-09-01T09:23:41.136Z,24
2018-09-01T09:24:50.581Z,24
2018-09-01T09:26:00.035Z,24
2018-09-01T09:27:09.740Z,24
2018-09-01T09:28:19.687Z,24
2018-09-01T09:29:29.643Z,24
2018-09-01T09:30:39.095Z,24
2018-09-01T09:31:48.825Z,24
2018-09-01T09:32:58.259Z,24
2018-09-01T09:34:07.662Z,24
2018-09-01T09:35:17.104Z,24
2018-09-01T09:36:26.008Z,24
2018-09-01T09:37:35.699Z,24
2018-09-01T09:38:44.625Z,24
2018-09-01T09:39:53.828Z,24
2018-09-01T09:41:03.017Z,24
2018-09-01T09:42:12.445Z,24
2018-09-01T09:43:21.877Z,24
2018-09-01T09:44:31.057Z,24
2018-09-01T09:45:40.531Z,24
2018-09-01T09:46:50.213Z,24
2018-09-01T09:47:59.380Z,24
2018-09-01T09:49:09.064Z,24
2018-09-01T09:50:19.018Z,24
2018-09-01T09:51:28.710Z,28
2018-09-01T09:52:38.123Z,24
2018-09-01T09:53:47.799Z,28
2018-09-01T09:54:57.225Z,24
2018-09-01T09:56:06.135Z,24
2018-09-01T09:57:15.844Z,24
2018-09-01T09:58:26.105Z,24
2018-09-01T09:59:35.314Z,24
2018-09-01T10:00:45.061Z,24
2018-09-01T10:01:54.283Z,24
2018-09-01T10:03:04.176Z,24
2018-09-01T10:04:13.888Z,24
2018-09-01T10:05:24.128Z,20
2018-09-01T10:06:33.368Z,24
2018-09-01T10:07:42.285Z,24
2018-09-01T10:08:51.971Z,24
2018-09-01T10:10:00.648Z,24
2018-09-01T10:11:10.779Z,24
2018-09-01T10:12:20.240Z,24
2018-09-01T10:13:30.004Z,24
2018-09-01T10:14:39.702Z,24
2018-09-01T10:15:49.307Z,24
2018-09-01T10:16:59.146Z,24
2018-09-01T10:18:08.315Z,24
2018-09-01T10:19:18.275Z,24
2018-09-01T10:20:27.871Z,24
2018-09-01T10:21:36.770Z,24
2018-09-01T10:22:46.205Z,24
2018-09-01T10:23:55.634Z,24
2018-09-01T10:25:05.066Z,24
2018-09-01T10:26:14.259Z,24
2018-09-01T10:27:23.454Z,24
2018-09-01T10:28:32.628Z,24
2018-09-01T10:29:42.079Z,24
2018-09-01T10:30:51.755Z,24
2018-09-01T10:32:01.177Z,24
2018-09-01T10:33:11.203Z,24
2018-09-01T10:34:20.341Z,24
2018-09-01T10:35:29.760Z,28
2018-09-01T10:36:38.946Z,28
2018-09-01T10:37:48.699Z,28
2018-09-01T10:38:58.210Z,28
2018-09-01T10:40:07.647Z,28
2018-09-01T10:41:17.070Z,12
2018-09-01T10:42:26.523Z,8
2018-09-01T10:43:36.007Z,8
2018-09-01T10:44:45.437Z,8
2018-09-01T10:45:54.618Z,8
2018-09-01T10:47:04.333Z,8
2018-09-01T10:48:14.156Z,4
2018-09-01T10:49:23.293Z,8
2018-09-01T10:50:32.729Z,24
2018-09-01T10:51:41.916Z,24
2018-09-01T10:52:51.440Z,24
2018-09-01T10:54:01.153Z,24
2018-09-01T10:55:10.589Z,24
2018-09-01T10:56:20.031Z,24
2018-09-01T10:57:29.736Z,24
2018-09-01T10:58:39.199Z,24
2018-09-01T10:59:49.866Z,24
2018-09-01T11:01:00.102Z,16
2018-09-01T11:02:09.570Z,8
2018-09-01T11:03:19.447Z,12
2018-09-01T11:04:28.356Z,24
2018-09-01T11:05:38.166Z,28
2018-09-01T11:06:47.325Z,28
2018-09-01T11:07:56.275Z,28
2018-09-01T11:09:05.725Z,24
2018-09-01T11:10:15.150Z,28
2018-09-01T11:11:24.355Z,28
2018-09-01T11:12:33.538Z,28
2018-09-01T11:13:42.762Z,28
2018-09-01T11:14:51.890Z,12
2018-09-01T11:16:01.840Z,24
2018-09-01T11:17:11.035Z,8
2018-09-01T11:18:20.476Z,12
2018-09-01T11:19:29.959Z,8
2018-09-01T11:20:39.452Z,8
2018-09-01T11:21:49.027Z,8
2018-09-01T11:22:58.205Z,8
2018-09-01T11:24:07.915Z,8
2018-09-01T11:25:17.363Z,8
2018-09-01T11:26:27.341Z,8
2018-09-01T11:27:37.449Z,12
2018-09-01T11:28:47.596Z,20
2018-09-01T11:29:57.043Z,20
2018-09-01T11:31:06.982Z,20
2018-09-01T11:32:16.692Z,20
2018-09-01T11:33:26.139Z,24
2018-09-01T11:34:35.684Z,20
2018-09-01T11:35:45.410Z,20
2018-09-01T11:36:55.888Z,20
2018-09-01T11:38:05.615Z,20
2018-09-01T11:39:15.040Z,20
2018-09-01T11:40:24.858Z,20
2018-09-01T11:41:34.043Z,20
2018-09-01T11:42:43.679Z,20
2018-09-01T11:43:53.704Z,20
2018-09-01T11:45:03.148Z,20
2018-09-01T11:46:12.346Z,24
2018-09-01T11:47:21.775Z,24
2018-09-01T11:48:31.157Z,24
2018-09-01T11:49:40.973Z,24
2018-09-01T11:50:50.673Z,24
2018-09-01T11:51:59.888Z,20
2018-09-01T11:53:09.485Z,24
2018-09-01T11:54:19.831Z,24
2018-09-01T11:55:28.766Z,24
2018-09-01T11:56:38.740Z,24
2018-09-01T11:57:48.183Z,24
2018-09-01T11:58:58.400Z,24
2018-09-01T12:00:07.940Z,28
2018-09-01T12:01:17.414Z,24
2018-09-01T12:02:27.579Z,28
2018-09-01T12:03:36.531Z,8
2018-09-01T12:04:46.427Z,28
2018-09-01T12:05:56.137Z,12
2018-09-01T12:07:05.595Z,8
2018-09-01T12:08:15.050Z,4
2018-09-01T12:09:25.336Z,8
2018-09-01T12:10:35.491Z,8
2018-09-01T12:11:45.330Z,24
2018-09-01T12:12:54.758Z,20
2018-09-01T12:14:04.374Z,28
2018-09-01T12:15:14.340Z,32
2018-09-01T12:16:23.779Z,32
2018-09-01T12:17:32.956Z,32
2018-09-01T12:18:42.408Z,32
2018-09-01T12:19:52.119Z,32
2018-09-01T12:21:01.030Z,32
2018-09-01T12:22:10.019Z,36
2018-09-01T12:23:19.262Z,36
2018-09-01T12:24:28.466Z,36
2018-09-01T12:25:38.420Z,36
2018-09-01T12:26:48.119Z,36
2018-09-01T12:27:57.302Z,36
2018-09-01T12:29:06.054Z,36
2018-09-01T12:30:15.525Z,32
2018-09-01T12:31:24.759Z,32
2018-09-01T12:32:34.445Z,28
2018-09-01T12:33:43.637Z,32
2018-09-01T12:34:53.065Z,36
2018-09-01T12:36:02.265Z,36
2018-09-01T12:37:11.218Z,40
2018-09-01T12:38:20.665Z,40
2018-09-01T12:39:30.140Z,36
2018-09-01T12:40:39.880Z,40
2018-09-01T12:41:49.059Z,40
2018-09-01T12:42:58.257Z,44
2018-09-01T12:44:07.761Z,44
2018-09-01T12:45:17.070Z,44
2018-09-01T12:46:26.027Z,40
2018-09-01T12:47:35.482Z,12
2018-09-01T12:48:44.414Z,8
2018-09-01T12:49:54.106Z,8
2018-09-01T12:51:03.804Z,8
2018-09-01T12:52:13.266Z,44
2018-09-01T12:53:22.910Z,20
2018-09-01T12:54:32.675Z,48
2018-09-01T12:55:42.374Z,48
2018-09-01T12:56:51.595Z,48
2018-09-01T12:58:01.290Z,48
2018-09-01T12:59:10.757Z,48
2018-09-01T13:00:20.189Z,48
2018-09-01T13:01:29.912Z,52
2018-09-01T13:02:39.650Z,52
2018-09-01T13:03:49.097Z,52
2018-09-01T13:04:58.288Z,52
2018-09-01T13:06:07.736Z,52
2018-09-01T13:07:17.448Z,52
2018-09-01T13:08:26.627Z,52
2018-09-01T13:09:36.337Z,56
2018-09-01T13:10:46.025Z,56
2018-09-01T13:11:55.455Z,56
2018-09-01T13:13:04.697Z,56
2018-09-01T13:14:14.392Z,48
2018-09-01T13:15:23.628Z,56
2018-09-01T13:16:33.075Z,60
2018-09-01T13:17:42.514Z,60
2018-09-01T13:18:52.275Z,56
2018-09-01T13:20:01.450Z,56
2018-09-01T13:21:11.421Z,60
2018-09-01T13:22:20.073Z,56
2018-09-01T13:23:29.285Z,56
2018-09-01T13:24:39.053Z,56
2018-09-01T13:25:48.745Z,60
2018-09-01T13:26:57.911Z,60
2018-09-01T13:28:07.094Z,56
2018-09-01T13:29:16.822Z,60
2018-09-01T13:30:26.026Z,60
2018-09-01T13:31:35.227Z,60
2018-09-01T13:32:44.664Z,60
2018-09-01T13:33:53.862Z,64
2018-09-01T13:35:03.080Z,64
2018-09-01T13:36:12.555Z,60
2018-09-01T13:37:21.991Z,60
2018-09-01T13:38:31.205Z,60
2018-09-01T13:39:40.162Z,60
2018-09-01T13:40:49.350Z,60
2018-09-01T13:41:58.795Z,64
2018-09-01T13:43:08.506Z,64
2018-09-01T13:44:17.945Z,60
2018-09-01T13:45:27.416Z,64
2018-09-01T13:46:36.892Z,60
2018-09-01T13:47:46.607Z,60
2018-09-01T13:48:56.068Z,60
2018-09-01T13:50:05.298Z,60
2018-09-01T13:51:15.013Z,64
2018-09-01T13:52:24.762Z,60
2018-09-01T13:53:34.206Z,60
2018-09-01T13:54:43.649Z,60
2018-09-01T13:55:52.834Z,56
2018-09-01T13:57:02.274Z,60
2018-09-01T13:58:11.220Z,60
2018-09-01T13:59:20.721Z,60
2018-09-01T14:00:30.429Z,60
2018-09-01T14:01:39.355Z,60
2018-09-01T14:02:48.797Z,60
2018-09-01T14:03:57.966Z,60
2018-09-01T14:05:07.132Z,60
2018-09-01T14:06:17.023Z,20
2018-09-01T14:07:26.997Z,20
2018-09-01T14:08:36.736Z,12
2018-09-01T14:09:46.185Z,40
2018-09-01T14:10:55.610Z,8
2018-09-01T14:12:05.302Z,12
2018-09-01T14:13:13.981Z,8
2018-09-01T14:14:23.456Z,8
2018-09-01T14:15:32.933Z,8
2018-09-01T14:16:42.631Z,48
2018-09-01T14:17:52.339Z,56
2018-09-01T14:19:01.767Z,28
2018-09-01T14:20:10.686Z,52
2018-09-01T14:21:19.598Z,48
2018-09-01T14:22:29.319Z,48
2018-09-01T14:23:39.257Z,52
2018-09-01T14:24:49.256Z,52
2018-09-01T14:25:58.441Z,48
2018-09-01T14:27:08.382Z,48
2018-09-01T14:28:17.839Z,48
2018-09-01T14:29:27.068Z,44
2018-09-01T14:30:36.763Z,44
2018-09-01T14:31:46.211Z,40
2018-09-01T14:32:55.217Z,40
2018-09-01T14:34:04.412Z,36
2018-09-01T14:35:14.392Z,36
2018-09-01T14:36:23.731Z,32
2018-09-01T14:37:33.299Z,28
2018-09-01T14:38:43.034Z,24
2018-09-01T14:39:52.521Z,24
2018-09-01T14:41:01.697Z,20
2018-09-01T14:42:10.610Z,12
2018-09-01T14:43:20.286Z,8
2018-09-01T14:44:29.492Z,12
2018-09-01T14:45:38.681Z,8
2018-09-01T14:46:48.009Z,8
2018-09-01T14:47:57.646Z,12
2018-09-01T14:49:06.834Z,8
2018-09-01T14:50:15.504Z,8
2018-09-01T14:51:24.966Z,8
2018-09-01T14:52:34.148Z,8
2018-09-01T14:53:43.331Z,8
2018-09-01T14:54:53.031Z,8
2018-09-01T14:56:02.737Z,8
2018-09-01T14:57:12.433Z,8
2018-09-01T14:58:21.860Z,12
2018-09-01T14:59:31.493Z,12
2018-09-01T15:00:40.949Z,12
2018-09-01T15:01:50.911Z,8
2018-09-01T15:02:59.935Z,8
2018-09-01T15:04:09.368Z,8
2018-09-01T15:05:19.060Z,8
2018-09-01T15:06:28.229Z,8
2018-09-01T15:07:37.435Z,8
2018-09-01T15:08:46.878Z,8
2018-09-01T15:09:56.570Z,8
2018-09-01T15:11:05.749Z,8
2018-09-01T15:12:15.207Z,8
2018-09-01T15:13:24.400Z,8
2018-09-01T15:14:34.136Z,8
2018-09-01T15:15:43.314Z,8
2018-09-01T15:16:52.848Z,8
2018-09-01T15:18:02.543Z,8
2018-09-01T15:19:11.724Z,4
2018-09-01T15:20:21.140Z,4
2018-09-01T15:21:30.312Z,4
2018-09-01T15:22:39.507Z,8
2018-09-01T15:23:48.697Z,4
2018-09-01T15:24:57.877Z,8
2018-09-01T15:26:07.837Z,8
2018-09-01T15:27:17.061Z,8
2018-09-01T15:28:26.828Z,4
2018-09-01T15:29:36.880Z,4
2018-09-01T15:30:46.045Z,4
2018-09-01T15:31:55.468Z,8
2018-09-01T15:33:04.148Z,8
2018-09-01T15:34:13.584Z,8
2018-09-01T15:35:23.525Z,8
2018-09-01T15:36:32.994Z,4
2018-09-01T15:37:42.722Z,4
2018-09-01T15:38:51.627Z,4
2018-09-01T15:40:01.098Z,4
2018-09-01T15:41:10.300Z,4
2018-09-01T15:42:20.263Z,8
2018-09-01T15:43:29.215Z,4
2018-09-01T15:44:38.713Z,8
2018-09-01T15:45:48.294Z,4
2018-09-01T15:46:57.479Z,4
2018-09-01T15:48:07.481Z,8
2018-09-01T15:49:16.415Z,4
2018-09-01T15:50:25.601Z,4
2018-09-01T15:51:35.096Z,4
2018-09-01T15:52:44.549Z,4
2018-09-01T15:53:54.192Z,4
2018-09-01T15:55:03.794Z,4
2018-09-01T15:56:12.734Z,4
2018-09-01T15:57:22.449Z,8
2018-09-01T15:58:32.164Z,8
2018-09-01T15:59:41.611Z,4
2018-09-01T16:00:51.085Z,4
2018-09-01T16:02:00.251Z,4
2018-09-01T16:03:09.756Z,4
2018-09-01T16:04:19.725Z,4
2018-09-01T16:05:29.160Z,4
2018-09-01T16:06:38.855Z,4
2018-09-01T16:07:48.609Z,4
2018-09-01T16:08:57.830Z,4
2018-09-01T16:10:07.529Z,4
2018-09-01T16:11:16.697Z,4
2018-09-01T16:12:26.121Z,4
2018-09-01T16:13:35.869Z,4
2018-09-01T16:14:45.287Z,4
2018-09-01T16:15:54.462Z,4
2018-09-01T16:17:03.910Z,4
2018-09-01T16:18:13.639Z,4
2018-09-01T16:19:23.051Z,4
2018-09-01T16:20:32.519Z,4
2018-09-01T16:21:41.699Z,4
2018-09-01T16:22:50.881Z,4
2018-09-01T16:24:00.098Z,4
2018-09-01T16:25:09.554Z,4
2018-09-01T16:26:18.997Z,4
2018-09-01T16:27:28.679Z,4
2018-09-01T16:28:37.359Z,4
2018-09-01T16:29:46.856Z,4
2018-09-01T16:30:56.283Z,4
2018-09-01T16:32:05.464Z,4
2018-09-01T16:33:14.895Z,4
2018-09-01T16:34:23.836Z,4
2018-09-01T16:35:33.247Z,4
2018-09-01T16:36:42.975Z,4
2018-09-01T16:37:51.910Z,4
2018-09-01T16:39:01.593Z,4
2018-09-01T16:40:11.032Z,4
2018-09-01T16:41:20.478Z,4
2018-09-01T16:42:29.899Z,4
2018-09-01T16:43:39.100Z,0
2018-09-01T16:44:48.512Z,0
2018-09-01T16:45:57.954Z,0
2018-09-01T16:47:06.866Z,0
2018-09-01T16:48:16.289Z,0
2018-09-01T16:49:25.717Z,0
2018-09-01T16:50:35.441Z,0
2018-09-01T16:51:44.390Z,0
2018-09-01T16:52:54.118Z,0